עמוד ראשי
METAR-TAF:

METAR-TAF

שדות תעופה :

ג'קסונוויל, פלורידה, ארצות הברית

קו רוחב: 30-20-10N, קו אורך: 081-30-53W, גובה: 12מטר

תצפית מזג אוויר נוכחית

הדו"ח נערך לפני 56דקות, בשעה 08:53 UTC
רוח רגועה
טמפרטורת 22 צלסיוס
לחות 94%
לחץ 1014 hPa
ראות: 16.1קילומטר
שמיים נקיים

METAR: KCRG 150853Z AUTO 00000KT 10SM CLR 22/21 A2993 RMK AO2 SLP134 T02220211 53000 $

זמן: 05:49 (09:49 UTC)

תחזית

הדו"ח נערך לפני 51דקות, בשעה 08:58 UTC
תחזית בתוקף מ 15 ב 09 UTC עד 16 ב 06 UTC
רוח 2קשר עם כיוונים משתנים
ראות: 10קילומטר
מעט עננים בגובה 2000רגל
עננים פזורים בגובה 25000רגל
זמנית מ -
15 ב 09 UTC עד 15 ב 12 UTC
ראות: 4.8קילומטר
מעט עננים בגובה 300רגל
אד
מ 15 ב 1500UTC
רוח 10קשר מכיוון מזרח
ראות: 10קילומטר
עננים פזורים בגובה 2000רגל
עננים פזורים בגובה 25000רגל
מ 16 ב 0000UTC
רוח 6קשר מכיוון דרום-מזרח
ראות: 10קילומטר
עננים פזורים בגובה 25000רגל

TAF: KCRG 150858Z 1509/1606 VRB02KT P6SM FEW020 SCT250 TEMPO 1509/1512 3SM BR FEW003 FM151500 09010KT P6SM SCT020 SCT250 FM160000 14006KT P6SM SCT250

תצפיות ותחזיות מזג אוויר לגבי יותר מ- 4,000 שדות תעופה ברחבי העולם. דוחות METAR ו- TAF.

התחנות הזמינות מסומנות בנקודות צהובות ואדומות על גבי המפה.

העבר את העכבר לנקודה הצבעונית על מנת לראות את שם התחנה.

לאחר מכן, לחץ כדי לראות את תוכן ואת תחזיות מזג האוויר.

כדי לשנות את המפה: לחץ על הכפתורים הירוקים עם הפלוס השחור כדי להתקרב; על הכפתור הירוק עם המקף כדי להתרחק; או בחיצים הירוקים למפות סמוכות.


METAR-TAF: